KLMT/LMT METAR and TAF weather

Enter ICAO airport designator
Station Type Date Time Source
KLMT METAR 2019/11/22 00:53 UTC NOAA

KLMT 220053Z 34005KT 10SM CLR 03/M03 A2996 RMK AO2 SLP155 T00331033


Station Type Date Time Source
KLMT Decoded METAR 2019/11/22 00:53 UTC NOAA

KLAMATH FALLS INTERNATIONAL AIRPORT, OR, United States (KLMT) 42-09N 121-43W 1246M
Nov 21, 2019 - 07:53 PM EST / 2019.11.22 0053 UTC
Wind: from the NNW (340 degrees) at 6 MPH (5 KT):0
Visibility: 10 mile(s):0
Sky conditions: clear
Temperature: 37.9 F (3.3 C)
Dew Point: 26.1 F (-3.3 C)
Relative Humidity: 61%
Pressure (altimeter): 29.96 in. Hg (1014 hPa)
ob: KLMT 220053Z 34005KT 10SM CLR 03/M03 A2996 RMK AO2 SLP155 T00331033
cycle: 1

Station Type Date Time Source
KLMT TAF 2019/11/21 18:39 UTC NOAA

TAF KLMT 211737Z 2118/2218 VRB05KT P6SM SKC

Example: see airport list